TAF and METAR

No METAR available for Dundo Airport

TAF for Dundo Airport

TAF FNDU 011100Z 0112/0124 VRB03KT 9999 SCT025 FEW026 BKN030 TEMPO 0119/0124 3000 TSRA BKN010 FEW020CB
Report created 1. apr 13:00

between 1. apr 14:00 - 1. apr 02:00

wind 3 knots from various directions visibility > 10km scattered clouds (~50% cover) at 2500 feet some clouds (~25% cover) at 2600 feet broken clouds (~75% cover) at 3000 feet

temporarily between 1. apr 21:00 - 1. apr 02:00

visibility 3000 meters thunderstorm and rain broken clouds (~75% cover) at 1000 feet some clouds (~25% cover) at 2000 feet of type cumulonimbus